TimeMST,TemperatureF,Dew PointF,Humidity,Sea Level PressureIn,VisibilityMPH,Wind Direction,Wind SpeedMPH,Gust SpeedMPH,PrecipitationIn,Events,Conditions,WindDirDegrees,DateUTC
12:53 AM,35.1,30.9,85,29.92,10.0,SE,6.9,-,N/A,,Overcast,140,2012-12-07 07:53:00
1:53 AM,37.0,32.0,82,29.91,10.0,South,6.9,-,N/A,,Overcast,170,2012-12-07 08:53:00
2:53 AM,39.0,33.1,79,29.88,10.0,SE,9.2,-,N/A,,Overcast,140,2012-12-07 09:53:00
3:53 AM,39.0,33.1,79,29.88,10.0,Calm,Calm,-,N/A,,Overcast,0,2012-12-07 10:53:00
4:53 AM,36.0,32.0,86,29.90,10.0,Calm,Calm,-,N/A,,Mostly Cloudy,0,2012-12-07 11:53:00
5:53 AM,36.0,30.9,82,29.93,10.0,Calm,Calm,-,N/A,,Mostly Cloudy,0,2012-12-07 12:53:00
6:53 AM,34.0,30.0,85,29.95,10.0,SE,8.1,-,N/A,,Clear,140,2012-12-07 13:53:00
7:53 AM,30.9,28.0,89,29.99,10.0,ESE,5.8,-,N/A,,Clear,110,2012-12-07 14:53:00
8:53 AM,39.0,33.1,79,29.96,10.0,SSE,8.1,-,N/A,,Clear,150,2012-12-07 15:53:00
9:53 AM,45.0,33.1,63,29.94,10.0,SE,6.9,-,N/A,,Clear,140,2012-12-07 16:53:00
10:53 AM,48.9,28.9,46,29.93,10.0,Variable,3.5,-,N/A,,Clear,0,2012-12-07 17:53:00
11:53 AM,51.1,21.9,32,29.90,10.0,North,6.9,-,N/A,,Clear,10,2012-12-07 18:53:00
12:53 PM,52.0,23.0,32,29.88,10.0,North,4.6,-,N/A,,Scattered Clouds,10,2012-12-07 19:53:00
1:53 PM,51.1,23.0,33,29.86,10.0,NE,3.5,-,N/A,,Scattered Clouds,40,2012-12-07 20:53:00
2:53 PM,50.0,23.0,35,29.85,10.0,North,6.9,-,N/A,,Clear,360,2012-12-07 21:53:00
3:53 PM,50.0,25.0,38,29.86,10.0,NNW,6.9,-,N/A,,Clear,340,2012-12-07 22:53:00
4:53 PM,44.1,25.0,47,29.89,5.0,WNW,3.5,-,N/A,,Haze,300,2012-12-07 23:53:00
6:53 PM,37.0,24.1,59,29.95,10.0,South,6.9,-,N/A,,Scattered Clouds,170,2012-12-08 01:53:00
7:53 PM,35.1,23.0,61,29.98,10.0,SE,9.2,-,N/A,,Clear,140,2012-12-08 02:53:00
9:53 PM,34.0,24.1,67,29.93,10.0,ESE,3.5,-,N/A,,Mostly Cloudy,110,2012-12-08 04:53:00
10:53 PM,33.1,24.1,70,29.93,10.0,SSE,5.8,-,N/A,,Scattered Clouds,160,2012-12-08 05:53:00
11:53 PM,32.0,24.1,73,29.91,10.0,SSE,6.9,-,N/A,,Clear,160,2012-12-08 06:53:00